International Virtual Aviation Organisation

Russian Federation and Kazakhstan MCD

 
UAII 271730Z 08002MPS 030V180 5000 FU SCT050CB 07/M00 Q1018 R10/0///70 NOSIG RMK QFE728/0971
QNH:(hPa/inHg/mmHg)1018 / 30.06 / 764
QFE:(hPa/inHg/mmHg)967 / 28.54 / 725
Temperature7
Dew Point-0
Visibility5000
WeatherSmoke
Cloud CoverSCT (5000);
Transition Height5000 m./17800 ft.
Transition LevelFL190
SQUAWK